sensor_id;sensor_type;location;lat;lon;timestamp;temperature;humidity
51021;DHT22;38907;45.562;8.856;2023-06-05T05:01:03;17.80;99.90
51021;DHT22;38907;45.562;8.856;2023-06-05T05:06:06;17.70;99.90
51021;DHT22;38907;45.562;8.856;2023-06-05T05:11:08;17.80;99.90
51021;DHT22;38907;45.562;8.856;2023-06-05T05:16:11;17.80;99.90
51021;DHT22;38907;45.562;8.856;2023-06-05T05:21:14;17.80;99.90
51021;DHT22;38907;45.562;8.856;2023-06-05T05:26:16;18.00;99.90
51021;DHT22;38907;45.562;8.856;2023-06-05T05:31:19;18.00;99.90
51021;DHT22;38907;45.562;8.856;2023-06-05T05:36:21;18.00;99.90
51021;DHT22;38907;45.562;8.856;2023-06-05T05:41:23;18.00;99.90
51021;DHT22;38907;45.562;8.856;2023-06-05T05:46:26;18.20;99.90
51021;DHT22;38907;45.562;8.856;2023-06-05T05:51:28;18.30;99.90
51021;DHT22;38907;45.562;8.856;2023-06-05T05:56:30;18.30;99.90
51021;DHT22;38907;45.562;8.856;2023-06-05T06:01:35;18.30;99.90
51021;DHT22;38907;45.562;8.856;2023-06-05T06:06:37;18.30;99.90
51021;DHT22;38907;45.562;8.856;2023-06-05T06:11:41;18.40;99.90
51021;DHT22;38907;45.562;8.856;2023-06-05T06:16:44;18.40;99.90
51021;DHT22;38907;45.562;8.856;2023-06-05T06:21:46;18.40;99.90
51021;DHT22;38907;45.562;8.856;2023-06-05T06:26:48;18.60;99.90
51021;DHT22;38907;45.562;8.856;2023-06-05T06:31:51;18.70;99.90
51021;DHT22;38907;45.562;8.856;2023-06-05T06:36:53;18.60;99.90
51021;DHT22;38907;45.562;8.856;2023-06-05T06:41:56;18.70;99.90
51021;DHT22;38907;45.562;8.856;2023-06-05T06:46:59;18.60;99.90
51021;DHT22;38907;45.562;8.856;2023-06-05T06:52:01;18.60;99.90
51021;DHT22;38907;45.562;8.856;2023-06-05T06:57:03;18.70;99.90
51021;DHT22;38907;45.562;8.856;2023-06-05T07:02:11;18.90;99.90
51021;DHT22;38907;45.562;8.856;2023-06-05T07:07:15;19.00;99.90
51021;DHT22;38907;45.562;8.856;2023-06-05T07:12:18;19.20;99.90
51021;DHT22;38907;45.562;8.856;2023-06-05T07:17:24;19.30;99.90
51021;DHT22;38907;45.562;8.856;2023-06-05T07:22:28;19.50;99.90
51021;DHT22;38907;45.562;8.856;2023-06-05T07:27:31;19.70;99.90
51021;DHT22;38907;45.562;8.856;2023-06-05T07:32:34;19.80;99.90
51021;DHT22;38907;45.562;8.856;2023-06-05T07:37:36;20.10;99.90
51021;DHT22;38907;45.562;8.856;2023-06-05T07:42:38;20.20;99.90
51021;DHT22;38907;45.562;8.856;2023-06-05T07:47:41;20.30;99.90
51021;DHT22;38907;45.562;8.856;2023-06-05T07:52:43;20.50;99.90
51021;DHT22;38907;45.562;8.856;2023-06-05T07:57:45;20.30;99.90
51021;DHT22;38907;45.562;8.856;2023-06-05T08:02:48;20.30;99.90
51021;DHT22;38907;45.562;8.856;2023-06-05T08:07:50;20.30;99.90
51021;DHT22;38907;45.562;8.856;2023-06-05T08:12:52;20.30;99.90
51021;DHT22;38907;45.562;8.856;2023-06-05T08:17:56;20.30;99.90
51021;DHT22;38907;45.562;8.856;2023-06-05T08:22:57;20.40;99.90
51021;DHT22;38907;45.562;8.856;2023-06-05T08:27:59;20.30;99.90
51021;DHT22;38907;45.562;8.856;2023-06-05T08:33:03;20.40;99.90
51021;DHT22;38907;45.562;8.856;2023-06-05T08:38:04;20.40;99.90
51021;DHT22;38907;45.562;8.856;2023-06-05T08:43:06;20.50;99.90
51021;DHT22;38907;45.562;8.856;2023-06-05T08:48:12;20.60;99.90
51021;DHT22;38907;45.562;8.856;2023-06-05T08:53:16;20.50;99.90
51021;DHT22;38907;45.562;8.856;2023-06-05T08:58:19;20.50;99.90
51021;DHT22;38907;45.562;8.856;2023-06-05T09:03:22;20.50;99.90
51021;DHT22;38907;45.562;8.856;2023-06-05T09:08:31;20.70;99.90
51021;DHT22;38907;45.562;8.856;2023-06-05T09:13:44;20.70;99.90
51021;DHT22;38907;45.562;8.856;2023-06-05T09:18:53;20.60;99.90
51021;DHT22;38907;45.562;8.856;2023-06-05T09:24:13;20.70;99.90
51021;DHT22;38907;45.562;8.856;2023-06-05T09:29:20;20.80;99.90
51021;DHT22;38907;45.562;8.856;2023-06-05T09:34:25;20.90;99.90
51021;DHT22;38907;45.562;8.856;2023-06-05T09:39:29;21.10;99.90
51021;DHT22;38907;45.562;8.856;2023-06-05T09:44:32;21.10;99.90
51021;DHT22;38907;45.562;8.856;2023-06-05T09:49:46;21.10;99.90
51021;DHT22;38907;45.562;8.856;2023-06-05T09:54:49;21.30;99.90
51021;DHT22;38907;45.562;8.856;2023-06-05T09:59:55;21.30;99.90
51021;DHT22;38907;45.562;8.856;2023-06-05T10:05:01;21.20;99.90
51021;DHT22;38907;45.562;8.856;2023-06-05T10:10:06;21.20;99.90
51021;DHT22;38907;45.562;8.856;2023-06-05T10:15:10;21.30;99.90
51021;DHT22;38907;45.562;8.856;2023-06-05T10:20:14;21.40;99.90
51021;DHT22;38907;45.562;8.856;2023-06-05T10:25:18;21.50;99.90
51021;DHT22;38907;45.562;8.856;2023-06-05T10:30:45;21.50;99.90
51021;DHT22;38907;45.562;8.856;2023-06-05T10:36:01;21.40;99.90
51021;DHT22;38907;45.562;8.856;2023-06-05T10:41:05;21.60;99.90
51021;DHT22;38907;45.562;8.856;2023-06-05T10:46:28;21.80;99.90
51021;DHT22;38907;45.562;8.856;2023-06-05T10:51:36;22.10;99.90
51021;DHT22;38907;45.562;8.856;2023-06-05T10:56:53;22.10;99.90
51021;DHT22;38907;45.562;8.856;2023-06-05T11:02:25;22.00;99.90
51021;DHT22;38907;45.562;8.856;2023-06-05T11:07:29;21.90;99.90
51021;DHT22;38907;45.562;8.856;2023-06-05T11:12:56;22.30;99.90
51021;DHT22;38907;45.562;8.856;2023-06-05T11:18:27;22.50;99.90
51021;DHT22;38907;45.562;8.856;2023-06-05T11:23:31;22.50;99.90
51021;DHT22;38907;45.562;8.856;2023-06-05T11:28:40;22.80;99.90
51021;DHT22;38907;45.562;8.856;2023-06-05T11:33:42;22.70;99.90
51021;DHT22;38907;45.562;8.856;2023-06-05T11:38:53;22.30;99.90
51021;DHT22;38907;45.562;8.856;2023-06-05T11:43:56;22.80;99.90
51021;DHT22;38907;45.562;8.856;2023-06-05T11:48:58;22.80;99.90
51021;DHT22;38907;45.562;8.856;2023-06-05T11:54:02;22.90;99.90
51021;DHT22;38907;45.562;8.856;2023-06-05T11:59:08;22.60;99.90
51021;DHT22;38907;45.562;8.856;2023-06-05T12:04:10;22.40;99.90
51021;DHT22;38907;45.562;8.856;2023-06-05T12:09:14;22.90;99.90
51021;DHT22;38907;45.562;8.856;2023-06-05T12:14:29;22.90;99.90
51021;DHT22;38907;45.562;8.856;2023-06-05T12:19:31;23.00;99.90
51021;DHT22;38907;45.562;8.856;2023-06-05T12:24:35;22.70;99.90
51021;DHT22;38907;45.562;8.856;2023-06-05T12:29:38;22.70;99.90
51021;DHT22;38907;45.562;8.856;2023-06-05T12:34:52;22.90;99.90
51021;DHT22;38907;45.562;8.856;2023-06-05T12:39:56;22.40;99.90
51021;DHT22;38907;45.562;8.856;2023-06-05T12:44:59;22.40;99.90
51021;DHT22;38907;45.562;8.856;2023-06-05T12:50:01;22.80;99.90
51021;DHT22;38907;45.562;8.856;2023-06-05T12:55:06;22.70;99.90
51021;DHT22;38907;45.562;8.856;2023-06-05T13:00:09;22.70;99.90
51021;DHT22;38907;45.562;8.856;2023-06-05T13:05:15;23.00;99.90
51021;DHT22;38907;45.562;8.856;2023-06-05T13:10:19;23.20;99.90
51021;DHT22;38907;45.562;8.856;2023-06-05T13:15:21;23.30;99.90
51021;DHT22;38907;45.562;8.856;2023-06-05T13:20:23;23.40;99.90
51021;DHT22;38907;45.562;8.856;2023-06-05T13:25:27;23.20;99.90
51021;DHT22;38907;45.562;8.856;2023-06-05T13:30:29;23.10;99.90
51021;DHT22;38907;45.562;8.856;2023-06-05T13:35:31;23.50;99.90
51021;DHT22;38907;45.562;8.856;2023-06-05T13:40:34;23.60;99.90
51021;DHT22;38907;45.562;8.856;2023-06-05T13:45:36;23.40;99.90
51021;DHT22;38907;45.562;8.856;2023-06-05T13:50:38;23.20;99.90
51021;DHT22;38907;45.562;8.856;2023-06-05T13:55:41;23.10;99.90
51021;DHT22;38907;45.562;8.856;2023-06-05T14:00:43;22.70;99.90
51021;DHT22;38907;45.562;8.856;2023-06-05T14:05:45;22.90;99.90
51021;DHT22;38907;45.562;8.856;2023-06-05T14:10:48;23.00;99.90
51021;DHT22;38907;45.562;8.856;2023-06-05T14:15:50;23.10;99.90
51021;DHT22;38907;45.562;8.856;2023-06-05T14:20:52;22.90;99.90
51021;DHT22;38907;45.562;8.856;2023-06-05T14:25:55;23.00;99.90
51021;DHT22;38907;45.562;8.856;2023-06-05T14:30:57;23.20;99.90
51021;DHT22;38907;45.562;8.856;2023-06-05T14:35:59;23.20;99.90
51021;DHT22;38907;45.562;8.856;2023-06-05T14:41:02;23.00;99.90
51021;DHT22;38907;45.562;8.856;2023-06-05T14:46:04;23.20;99.90
51021;DHT22;38907;45.562;8.856;2023-06-05T14:51:06;23.20;99.90
51021;DHT22;38907;45.562;8.856;2023-06-05T14:56:09;23.30;99.90
51021;DHT22;38907;45.562;8.856;2023-06-05T15:01:11;23.50;99.90
51021;DHT22;38907;45.562;8.856;2023-06-05T15:06:14;23.30;99.90
51021;DHT22;38907;45.562;8.856;2023-06-05T15:11:18;23.20;99.90
51021;DHT22;38907;45.562;8.856;2023-06-05T15:16:21;23.30;99.90
51021;DHT22;38907;45.562;8.856;2023-06-05T15:21:23;23.20;99.90
51021;DHT22;38907;45.562;8.856;2023-06-05T15:26:27;23.00;99.90
51021;DHT22;38907;45.562;8.856;2023-06-05T15:31:28;22.90;99.90
51021;DHT22;38907;45.562;8.856;2023-06-05T15:36:30;22.70;99.90
51021;DHT22;38907;45.562;8.856;2023-06-05T15:41:35;23.00;99.90
51021;DHT22;38907;45.562;8.856;2023-06-05T15:46:37;23.50;99.90
51021;DHT22;38907;45.562;8.856;2023-06-05T15:51:39;23.70;99.90
51021;DHT22;38907;45.562;8.856;2023-06-05T15:56:42;23.80;99.90
51021;DHT22;38907;45.562;8.856;2023-06-05T16:01:44;23.20;99.90
51021;DHT22;38907;45.562;8.856;2023-06-05T16:06:46;23.20;99.90
51021;DHT22;38907;45.562;8.856;2023-06-05T16:11:50;23.50;99.90
51021;DHT22;38907;45.562;8.856;2023-06-05T16:16:51;23.30;99.90
51021;DHT22;38907;45.562;8.856;2023-06-05T16:21:53;23.70;99.90
51021;DHT22;38907;45.562;8.856;2023-06-05T16:26:58;23.80;99.90
51021;DHT22;38907;45.562;8.856;2023-06-05T16:32:00;24.00;99.90
51021;DHT22;38907;45.562;8.856;2023-06-05T16:37:02;23.50;99.90
51021;DHT22;38907;45.562;8.856;2023-06-05T16:42:32;23.30;99.90
51021;DHT22;38907;45.562;8.856;2023-06-05T16:47:34;23.60;99.90
51021;DHT22;38907;45.562;8.856;2023-06-05T16:52:36;23.50;99.90
51021;DHT22;38907;45.562;8.856;2023-06-05T16:57:39;23.20;99.90
51021;DHT22;38907;45.562;8.856;2023-06-05T17:02:41;23.30;99.90
51021;DHT22;38907;45.562;8.856;2023-06-05T17:07:43;23.20;99.90
51021;DHT22;38907;45.562;8.856;2023-06-05T17:12:46;23.10;99.90
51021;DHT22;38907;45.562;8.856;2023-06-05T17:17:48;23.10;99.90
51021;DHT22;38907;45.562;8.856;2023-06-05T17:22:50;22.90;99.90
51021;DHT22;38907;45.562;8.856;2023-06-05T17:27:54;22.90;99.90
51021;DHT22;38907;45.562;8.856;2023-06-05T17:32:56;22.90;99.90
51021;DHT22;38907;45.562;8.856;2023-06-05T17:37:58;22.80;99.90
51021;DHT22;38907;45.562;8.856;2023-06-05T17:43:01;22.70;99.90
51021;DHT22;38907;45.562;8.856;2023-06-05T17:48:03;22.60;99.90
51021;DHT22;38907;45.562;8.856;2023-06-05T17:53:05;22.50;99.90
51021;DHT22;38907;45.562;8.856;2023-06-05T17:58:09;22.50;99.90
51021;DHT22;38907;45.562;8.856;2023-06-05T18:03:10;22.40;99.90
51021;DHT22;38907;45.562;8.856;2023-06-05T18:08:12;22.30;99.90
51021;DHT22;38907;45.562;8.856;2023-06-05T18:13:16;22.30;99.90
51021;DHT22;38907;45.562;8.856;2023-06-05T18:18:17;22.30;99.90
51021;DHT22;38907;45.562;8.856;2023-06-05T18:23:19;22.10;99.90
51021;DHT22;38907;45.562;8.856;2023-06-05T18:28:22;21.90;99.90
51021;DHT22;38907;45.562;8.856;2023-06-05T18:33:24;21.90;99.90
51021;DHT22;38907;45.562;8.856;2023-06-05T18:38:27;21.90;99.90
51021;DHT22;38907;45.562;8.856;2023-06-05T18:43:30;21.70;99.90
51021;DHT22;38907;45.562;8.856;2023-06-05T18:48:32;21.60;99.90
51021;DHT22;38907;45.562;8.856;2023-06-05T18:53:34;21.50;99.90
51021;DHT22;38907;45.562;8.856;2023-06-05T18:58:37;21.40;99.90
51021;DHT22;38907;45.562;8.856;2023-06-05T19:03:44;21.40;99.90
51021;DHT22;38907;45.562;8.856;2023-06-05T19:08:46;21.40;99.90
51021;DHT22;38907;45.562;8.856;2023-06-05T19:13:50;21.40;99.90
51021;DHT22;38907;45.562;8.856;2023-06-05T19:18:52;21.40;99.90
51021;DHT22;38907;45.562;8.856;2023-06-05T19:23:54;21.40;99.90
51021;DHT22;38907;45.562;8.856;2023-06-05T19:28:57;21.40;99.90
51021;DHT22;38907;45.562;8.856;2023-06-05T19:34:00;21.30;99.90
51021;DHT22;38907;45.562;8.856;2023-06-05T19:39:02;21.30;99.90
51021;DHT22;38907;45.562;8.856;2023-06-05T19:44:06;21.30;99.90
51021;DHT22;38907;45.562;8.856;2023-06-05T19:49:09;21.30;99.90
51021;DHT22;38907;45.562;8.856;2023-06-05T19:54:11;21.10;99.90
51021;DHT22;38907;45.562;8.856;2023-06-05T19:59:16;21.00;99.90
51021;DHT22;38907;45.562;8.856;2023-06-05T20:04:18;21.10;99.90
51021;DHT22;38907;45.562;8.856;2023-06-05T20:09:20;21.10;99.90
51021;DHT22;38907;45.562;8.856;2023-06-05T20:14:23;21.00;99.90
51021;DHT22;38907;45.562;8.856;2023-06-05T20:19:26;21.00;99.90
51021;DHT22;38907;45.562;8.856;2023-06-05T20:24:27;20.90;99.90
51021;DHT22;38907;45.562;8.856;2023-06-05T20:29:31;20.80;99.90
51021;DHT22;38907;45.562;8.856;2023-06-05T20:34:33;20.80;99.90
51021;DHT22;38907;45.562;8.856;2023-06-05T20:39:35;20.80;99.90
51021;DHT22;38907;45.562;8.856;2023-06-05T20:44:42;20.90;99.90
51021;DHT22;38907;45.562;8.856;2023-06-05T20:49:47;21.00;99.90
51021;DHT22;38907;45.562;8.856;2023-06-05T20:54:49;21.00;99.90
51021;DHT22;38907;45.562;8.856;2023-06-05T20:59:52;20.80;99.90
51021;DHT22;38907;45.562;8.856;2023-06-05T21:04:54;20.70;99.90
51021;DHT22;38907;45.562;8.856;2023-06-05T21:09:56;20.70;99.90
51021;DHT22;38907;45.562;8.856;2023-06-05T21:14:59;20.60;99.90
51021;DHT22;38907;45.562;8.856;2023-06-05T21:20:02;20.60;99.90
51021;DHT22;38907;45.562;8.856;2023-06-05T21:25:05;20.50;99.90
51021;DHT22;38907;45.562;8.856;2023-06-05T21:30:09;20.40;99.90
51021;DHT22;38907;45.562;8.856;2023-06-05T21:35:11;20.40;99.90
51021;DHT22;38907;45.562;8.856;2023-06-05T21:40:14;20.40;99.90
51021;DHT22;38907;45.562;8.856;2023-06-05T21:45:17;20.30;99.90
51021;DHT22;38907;45.562;8.856;2023-06-05T21:50:19;20.10;99.90
51021;DHT22;38907;45.562;8.856;2023-06-05T21:55:21;19.80;99.90
51021;DHT22;38907;45.562;8.856;2023-06-05T22:00:25;19.90;99.90
51021;DHT22;38907;45.562;8.856;2023-06-05T22:05:27;19.90;99.90
51021;DHT22;38907;45.562;8.856;2023-06-05T22:10:30;20.00;99.90
51021;DHT22;38907;45.562;8.856;2023-06-05T22:15:33;19.90;99.90
51021;DHT22;38907;45.562;8.856;2023-06-05T22:20:36;20.00;99.90
51021;DHT22;38907;45.562;8.856;2023-06-05T22:25:40;19.90;99.90
51021;DHT22;38907;45.562;8.856;2023-06-05T22:30:43;19.80;99.90
51021;DHT22;38907;45.562;8.856;2023-06-05T22:35:46;19.60;99.90
51021;DHT22;38907;45.562;8.856;2023-06-05T22:40:47;19.60;99.90
51021;DHT22;38907;45.562;8.856;2023-06-05T22:45:51;19.60;99.90
51021;DHT22;38907;45.562;8.856;2023-06-05T22:50:52;19.80;99.90
51021;DHT22;38907;45.562;8.856;2023-06-05T22:55:54;19.80;99.90
51021;DHT22;38907;45.562;8.856;2023-06-05T23:00:58;19.90;99.90
51021;DHT22;38907;45.562;8.856;2023-06-05T23:06:00;20.00;99.90
51021;DHT22;38907;45.562;8.856;2023-06-05T23:11:02;20.00;99.90
51021;DHT22;38907;45.562;8.856;2023-06-05T23:16:06;20.00;99.90
51021;DHT22;38907;45.562;8.856;2023-06-05T23:21:10;20.10;99.90
51021;DHT22;38907;45.562;8.856;2023-06-05T23:26:13;19.90;99.90
51021;DHT22;38907;45.562;8.856;2023-06-05T23:31:17;19.90;99.90
51021;DHT22;38907;45.562;8.856;2023-06-05T23:36:19;19.90;99.90
51021;DHT22;38907;45.562;8.856;2023-06-05T23:41:21;19.70;99.90
51021;DHT22;38907;45.562;8.856;2023-06-05T23:46:27;19.20;99.90
51021;DHT22;38907;45.562;8.856;2023-06-05T23:51:31;19.10;99.90
51021;DHT22;38907;45.562;8.856;2023-06-05T23:56:33;19.20;99.90
